Airport ID:KO69
Update Time (UTC):28/05/2022 14:44
Wind Speed (Knots):10
Wind Direction (Magnetic):270
Temperature (°C):11
Dew Point (°C):11
Humidity (%):97
Altimeter (inHg):29.98
Density Altitude (Feet):
Visibility:10+
Clouds (Hundreds of feet):OVC005
Present Weather:
METAR:METAR KO69 281440Z AUTO 29009KT 10SM OVC004 11/11 A2998 RMK A01

The data displayed is for advisory purposes only and is not to be used for flight planning or operations.